Time;durP1;ratioP1;P1;durP2;ratioP2;P2;SDS_P1;SDS_P2;PMS_P1;PMS_P2;Temp;Humidity;BMP_temperature;BMP_pressure;BME280_temperature;BME280_humidity;BME280_pressure;Samples;Min_cycle;Max_cycle;Signal;HPM_P1;HPM_P2
2023/07/01 00:02:22;;;;;;;4.07;3.55;;;;;;;19.35;52.87;99360.91;10351208;28;20237;-35
2023/07/01 00:07:25;;;;;;;6.07;4.13;;;;;;;19.29;52.97;99365.47;10355720;28;20244;-37
2023/07/01 00:12:27;;;;;;;6.32;3.90;;;;;;;18.69;54.16;99402.28;10357874;28;20666;-37
2023/07/01 00:17:28;;;;;;;5.47;3.38;;;;;;;18.97;53.13;99354.50;10364683;28;20226;-41
2023/07/01 00:22:30;;;;;;;5.97;3.80;;;;;;;19.72;52.39;99314.13;10359088;28;20625;-39
2023/07/01 00:27:32;;;;;;;4.65;3.53;;;;;;;19.24;53.40;99323.91;10361859;28;20295;-39
2023/07/01 00:32:34;;;;;;;5.28;3.92;;;;;;;19.44;52.94;99326.84;10361197;28;20210;-39
2023/07/01 00:37:35;;;;;;;5.07;3.83;;;;;;;18.95;54.07;99330.34;10361647;28;20316;-35
2023/07/01 00:42:37;;;;;;;5.28;4.38;;;;;;;18.24;56.17;99336.31;10358452;28;20881;-36
2023/07/01 00:47:40;;;;;;;7.13;4.32;;;;;;;19.07;54.52;99286.84;10362107;28;20233;-41
2023/07/01 00:52:43;;;;;;;6.63;4.40;;;;;;;18.28;55.08;99358.28;10355429;28;20630;-38
2023/07/01 00:57:45;;;;;;;5.03;4.00;;;;;;;18.46;55.24;99341.81;10356203;28;20244;-39
2023/07/01 01:02:46;;;;;;;5.10;4.10;;;;;;;18.76;54.82;99312.69;10358828;28;20253;-38
2023/07/01 01:07:53;;;;;;;5.67;4.60;;;;;;;19.03;54.55;99291.13;10359191;28;20268;-38
2023/07/01 01:12:57;;;;;;;5.93;4.70;;;;;;;18.51;55.59;99308.56;10360778;28;20668;-40
2023/07/01 01:18:05;;;;;;;6.50;4.80;;;;;;;18.91;54.01;99329.19;10355153;28;20225;-38
2023/07/01 01:23:13;;;;;;;5.83;4.40;;;;;;;19.00;53.77;99343.97;10358249;28;20619;-37
2023/07/01 01:28:15;;;;;;;5.43;4.80;;;;;;;18.48;54.88;99357.81;10357649;28;20320;-38
2023/07/01 01:33:17;;;;;;;6.18;4.55;;;;;;;19.30;54.01;99283.03;10355966;28;20213;-36
2023/07/01 01:38:22;;;;;;;6.23;5.00;;;;;;;19.09;54.02;99276.53;10357295;28;20213;-38
2023/07/01 01:43:34;;;;;;;6.05;4.88;;;;;;;18.28;55.40;99348.31;10363192;28;20209;-37
2023/07/01 01:48:38;;;;;;;6.60;5.40;;;;;;;18.48;55.00;99309.06;10357773;28;20256;-36
2023/07/01 01:53:41;;;;;;;7.30;5.67;;;;;;;18.73;54.78;99276.09;10356137;28;20299;-39
2023/07/01 01:58:43;;;;;;;7.47;5.43;;;;;;;18.67;54.34;99281.69;10356398;28;20249;-38
2023/07/01 02:03:45;;;;;;;6.78;5.88;;;;;;;18.67;54.62;99285.22;10355292;28;20245;-39
2023/07/01 02:08:47;;;;;;;10.37;5.63;;;;;;;18.80;54.40;99284.84;10352360;28;20245;-35
2023/07/01 02:13:49;;;;;;;8.57;6.07;;;;;;;18.69;54.16;99315.59;10357971;28;20241;-36
2023/07/01 02:18:50;;;;;;;6.63;5.00;;;;;;;18.75;54.67;99297.53;10354929;28;20218;-39
2023/07/01 02:23:52;;;;;;;7.40;5.77;;;;;;;17.83;55.88;99361.84;10354668;28;20233;-38
2023/07/01 02:28:55;;;;;;;7.77;5.77;;;;;;;18.46;54.78;99300.38;10353661;28;20218;-38
2023/07/01 02:34:00;;;;;;;7.70;5.23;;;;;;;18.08;55.51;99327.13;10353487;28;20233;-38
2023/07/01 02:39:02;;;;;;;6.67;5.67;;;;;;;18.88;53.65;99280.88;10356581;28;20201;-39
2023/07/01 02:44:04;;;;;;;8.80;6.30;;;;;;;17.81;55.69;99355.88;10358110;28;20237;-38
2023/07/01 02:49:06;;;;;;;7.10;5.97;;;;;;;18.52;54.35;99301.25;10355874;28;22203;-37
2023/07/01 02:54:08;;;;;;;8.53;7.00;;;;;;;17.28;56.18;99403.78;10354878;28;20530;-39
2023/07/01 02:59:11;;;;;;;9.77;6.57;;;;;;;18.54;54.10;99301.81;10351689;28;20272;-38
2023/07/01 03:04:14;;;;;;;9.77;6.13;;;;;;;18.43;53.60;99347.72;10354007;28;20288;-40
2023/07/01 03:09:21;;;;;;;9.30;6.50;;;;;;;18.89;52.66;99335.91;10353998;28;20260;-35
2023/07/01 03:14:23;;;;;;;8.30;6.33;;;;;;;18.50;52.96;99371.13;10357124;28;20229;-38
2023/07/01 03:19:25;;;;;;;10.43;6.23;;;;;;;18.07;53.87;99393.16;10352488;28;20213;-38
2023/07/01 03:24:33;;;;;;;7.28;6.38;;;;;;;18.58;53.16;99357.97;10350792;28;20236;-34
2023/07/01 03:29:35;;;;;;;10.70;6.63;;;;;;;18.55;52.98;99349.53;10356771;28;20289;-34
2023/07/01 03:34:39;;;;;;;10.93;7.00;;;;;;;18.17;53.83;99373.56;10355082;28;20225;-33
2023/07/01 03:39:41;;;;;;;12.60;7.87;;;;;;;17.76;54.20;99388.25;10350013;28;20214;-33
2023/07/01 03:44:42;;;;;;;10.93;7.63;;;;;;;18.94;52.50;99312.41;10357344;28;20307;-33
2023/07/01 03:49:44;;;;;;;10.00;7.00;;;;;;;17.12;55.23;99426.94;10362488;28;20597;-34
2023/07/01 03:54:46;;;;;;;10.33;7.53;;;;;;;17.83;54.25;99388.91;10362034;28;20241;-35
2023/07/01 03:59:48;;;;;;;12.13;7.00;;;;;;;17.42;54.94;99405.13;10363029;28;20240;-34
2023/07/01 04:04:50;;;;;;;12.07;7.53;;;;;;;18.21;53.51;99357.63;10359869;28;20276;-34
2023/07/01 04:09:51;;;;;;;13.20;7.03;;;;;;;17.14;55.40;99409.44;10364575;28;20685;-37
2023/07/01 04:14:55;;;;;;;8.70;6.83;;;;;;;18.06;54.36;99318.41;10355062;28;20236;-33
2023/07/01 04:19:57;;;;;;;8.67;6.20;;;;;;;17.22;55.15;99404.72;10361268;28;20209;-33
2023/07/01 04:24:58;;;;;;;12.53;6.60;;;;;;;18.48;53.19;99308.25;10356923;28;20311;-33
2023/07/01 04:30:02;;;;;;;9.53;5.83;;;;;;;17.53;54.73;99363.72;10360431;28;20283;-33
2023/07/01 04:35:04;;;;;;;10.40;5.77;;;;;;;17.96;53.52;99358.03;10358005;28;20612;-34
2023/07/01 04:40:06;;;;;;;7.63;5.83;;;;;;;18.55;52.57;99319.72;10357440;28;20245;-33
2023/07/01 04:45:09;;;;;;;10.67;6.03;;;;;;;18.30;53.23;99287.66;10358549;28;20248;-33
2023/07/01 04:50:10;;;;;;;8.03;5.30;;;;;;;17.36;54.73;99373.66;10362048;28;20260;-37
2023/07/01 04:55:12;;;;;;;7.63;5.40;;;;;;;17.51;54.34;99367.72;10355259;28;20303;-34
2023/07/01 05:00:15;;;;;;;8.47;5.60;;;;;;;18.31;52.51;99362.44;10361998;28;20248;-34
2023/07/01 05:05:16;;;;;;;6.23;4.87;;;;;;;18.10;52.81;99372.88;10358919;28;20240;-37
2023/07/01 05:10:19;;;;;;;9.00;4.93;;;;;;;18.39;52.87;99352.00;10355580;28;20237;-37
2023/07/01 05:15:21;;;;;;;7.50;5.00;;;;;;;18.53;53.07;99302.91;10356503;28;20228;-33
2023/07/01 05:20:23;;;;;;;10.13;5.00;;;;;;;17.65;53.87;99379.94;10357722;28;20578;-34
2023/07/01 05:25:25;;;;;;;7.50;5.20;;;;;;;18.39;52.67;99338.47;10354955;28;20265;-34
2023/07/01 05:30:26;;;;;;;9.17;5.10;;;;;;;17.64;54.28;99385.59;10350189;28;20228;-32
2023/07/01 05:35:28;;;;;;;9.00;5.17;;;;;;;18.51;52.76;99324.00;10362439;28;20253;-37
2023/07/01 05:40:30;;;;;;;10.63;4.80;;;;;;;18.19;53.13;99357.88;10358123;28;20217;-33
2023/07/01 05:45:32;;;;;;;9.20;5.00;;;;;;;19.03;51.67;99356.22;10363287;28;20264;-33
2023/07/01 05:50:34;;;;;;;11.10;4.97;;;;;;;18.71;52.86;99340.56;10355202;28;20578;-33
2023/07/01 05:55:36;;;;;;;9.70;5.23;;;;;;;18.63;52.39;99332.84;10359827;28;20253;-36
2023/07/01 06:00:38;;;;;;;8.73;4.97;;;;;;;18.25;51.83;99385.84;10359708;28;20275;-33
2023/07/01 06:05:40;;;;;;;6.82;4.10;;;;;;;18.43;51.28;99387.53;10361739;28;20240;-33
2023/07/01 06:10:42;;;;;;;6.87;4.20;;;;;;;18.99;49.78;99349.63;10350255;28;20825;-35
2023/07/01 06:15:43;;;;;;;6.10;3.80;;;;;;;18.94;49.59;99358.50;10354319;28;20386;-33
2023/07/01 06:20:45;;;;;;;4.38;3.30;;;;;;;19.43;48.81;99357.75;10356813;28;20219;-34
2023/07/01 06:25:47;;;;;;;5.27;3.40;;;;;;;19.16;49.01;99369.38;10352468;28;20237;-36
2023/07/01 06:30:49;;;;;;;4.15;3.40;;;;;;;18.74;47.34;99399.69;10354381;28;20249;-34
2023/07/01 06:35:51;;;;;;;4.05;3.00;;;;;;;18.49;48.21;99391.16;10353852;28;20222;-33
2023/07/01 06:40:53;;;;;;;12.35;3.80;;;;;;;18.53;47.51;99376.88;10356342;28;20215;-35
2023/07/01 06:45:54;;;;;;;4.70;2.92;;;;;;;18.52;47.32;99417.75;10356843;28;20234;-33
2023/07/01 06:50:56;;;;;;;5.20;3.67;;;;;;;18.06;47.00;99451.06;10356087;28;20213;-34
2023/07/01 06:55:58;;;;;;;6.30;3.40;;;;;;;18.72;46.46;99374.72;10357773;28;20237;-33
2023/07/01 07:01:00;;;;;;;9.30;4.20;;;;;;;19.70;45.80;99340.72;10351951;28;20679;-37
2023/07/01 07:06:02;;;;;;;4.75;3.65;;;;;;;19.12;45.00;99389.13;10347523;28;20759;-33
2023/07/01 07:11:04;;;;;;;4.82;2.65;;;;;;;18.32;45.79;99429.06;10349043;28;20234;-36
2023/07/01 07:16:05;;;;;;;3.90;2.38;;;;;;;18.82;44.99;99401.94;10354028;28;20692;-36
2023/07/01 07:21:07;;;;;;;3.20;2.25;;;;;;;19.50;44.30;99390.97;10360212;28;20213;-34
2023/07/01 07:26:09;;;;;;;3.20;2.45;;;;;;;19.17;44.70;99416.31;10360756;28;20229;-33
2023/07/01 07:31:11;;;;;;;2.53;2.17;;;;;;;18.43;45.04;99430.88;10358899;28;20209;-35
2023/07/01 07:36:13;;;;;;;2.65;2.00;;;;;;;18.00;45.83;99418.72;10357705;28;20327;-36
2023/07/01 07:41:14;;;;;;;4.43;2.30;;;;;;;19.54;44.22;99313.38;10366551;28;20208;-35
2023/07/01 07:46:16;;;;;;;4.03;2.33;;;;;;;18.22;45.27;99410.72;10364781;28;20230;-37
2023/07/01 07:51:18;;;;;;;3.67;2.72;;;;;;;19.23;44.44;99336.63;10366357;28;21847;-33
2023/07/01 07:56:20;;;;;;;3.25;2.05;;;;;;;19.27;43.77;99353.25;10358617;28;20237;-34
2023/07/01 08:01:22;;;;;;;2.97;1.92;;;;;;;18.73;44.27;99392.63;10363772;28;20238;-36
2023/07/01 08:06:23;;;;;;;3.78;2.10;;;;;;;19.18;43.67;99379.97;10360510;28;20229;-33
2023/07/01 08:11:25;;;;;;;7.15;2.47;;;;;;;19.78;43.13;99332.09;10362615;28;20757;-36
2023/07/01 08:16:27;;;;;;;5.88;2.80;;;;;;;19.68;42.71;99334.72;10364480;28;20237;-36
2023/07/01 08:21:29;;;;;;;2.63;1.95;;;;;;;20.18;42.24;99332.78;10364850;28;20201;-41
2023/07/01 08:26:31;;;;;;;2.55;1.98;;;;;;;20.02;42.11;99291.84;10362396;28;20504;-40
2023/07/01 08:31:33;;;;;;;2.17;1.92;;;;;;;20.62;41.28;99297.19;10356078;28;20706;-39
2023/07/01 08:36:35;;;;;;;3.25;1.92;;;;;;;21.39;40.17;99254.81;10357669;28;20749;-34
2023/07/01 08:41:50;;;;;;;5.63;2.40;;;;;;;20.07;41.33;99369.84;10364312;28;20218;-33
2023/07/01 08:46:53;;;;;;;2.53;2.00;;;;;;;20.65;40.23;99281.16;10360110;28;20233;-33
2023/07/01 08:52:07;;;;;;;2.97;1.80;;;;;;;20.04;40.67;99351.34;10355488;28;20205;-37
2023/07/01 08:57:09;;;;;;;4.80;2.42;;;;;;;19.93;40.84;99315.94;10359515;28;20374;-35
2023/07/01 09:02:12;;;;;;;4.18;2.45;;;;;;;20.78;40.36;99260.03;10361732;28;20214;-33
2023/07/01 09:07:14;;;;;;;4.65;2.53;;;;;;;21.36;39.87;99249.13;10357124;28;20277;-32
2023/07/01 09:12:16;;;;;;;3.17;2.22;;;;;;;21.22;40.42;99240.59;10357177;28;20228;-37
2023/07/01 09:17:29;;;;;;;3.10;2.03;;;;;;;20.59;40.73;99244.16;10360049;28;20290;-32
2023/07/01 09:22:32;;;;;;;4.40;2.40;;;;;;;21.01;40.01;99234.31;10357805;28;20212;-34
2023/07/01 09:27:42;;;;;;;2.85;1.83;;;;;;;20.58;40.66;99237.09;10360244;28;20233;-35
2023/07/01 09:32:44;;;;;;;2.20;2.00;;;;;;;20.93;39.45;99248.41;10359752;28;20244;-36
2023/07/01 09:38:01;;;;;;;2.22;2.00;;;;;;;20.82;40.13;99266.59;10370608;28;20996;-40
2023/07/01 09:43:03;;;;;;;2.15;1.85;;;;;;;20.46;41.09;99277.25;10353796;28;20209;-36
2023/07/01 09:48:12;;;;;;;4.20;2.00;;;;;;;21.04;39.85;99260.97;10354413;28;20702;-34
2023/07/01 09:53:21;;;;;;;2.03;1.92;;;;;;;21.10;40.08;99226.44;10354193;28;20210;-39
2023/07/01 09:58:23;;;;;;;3.00;2.00;;;;;;;20.69;40.54;99233.34;10350701;28;20240;-33
2023/07/01 10:03:29;;;;;;;2.22;1.80;;;;;;;21.07;40.50;99186.16;10355726;28;20213;-37
2023/07/01 10:08:31;;;;;;;4.95;2.33;;;;;;;21.56;39.71;99208.31;10353104;28;20229;-41
2023/07/01 10:13:42;;;;;;;3.30;1.88;;;;;;;21.66;40.12;99154.94;10355459;28;20603;-35
2023/07/01 10:18:43;;;;;;;3.33;2.00;;;;;;;20.67;40.73;99174.91;10352870;28;20220;-37
2023/07/01 10:23:45;;;;;;;2.63;2.03;;;;;;;20.61;40.46;99170.50;10352485;28;20263;-35
2023/07/01 10:28:47;;;;;;;4.13;2.33;;;;;;;21.73;39.83;99101.03;10351583;28;20234;-35
2023/07/01 10:33:51;;;;;;;1.98;1.60;;;;;;;21.00;39.95;99180.97;10351109;28;20229;-37
2023/07/01 10:39:33;;;;;;;6.03;2.05;;;;;;;21.05;40.71;99187.28;10354796;28;20948;-38
2023/07/01 10:44:35;;;;;;;2.20;1.90;;;;;;;20.86;40.95;99132.56;10361104;28;20316;-35
2023/07/01 10:50:00;;;;;;;2.25;1.88;;;;;;;21.38;41.56;99125.28;10352788;28;20225;-39
2023/07/01 10:55:02;;;;;;;4.05;2.00;;;;;;;22.43;40.78;99098.34;10353970;28;20229;-37
2023/07/01 11:06:22;;;;;;;1.95;1.67;;;;;;;19.68;44.86;99031.56;10350544;28;20841;-65
2023/07/01 11:11:28;;;;;;;4.43;2.03;;;;;;;19.14;45.49;99054.25;10324420;28;21538;-66
2023/07/01 11:16:32;;;;;;;3.88;2.25;;;;;;;18.98;45.28;99072.28;10323994;28;20245;-66
2023/07/01 11:21:36;;;;;;;3.80;1.90;;;;;;;20.16;43.65;98989.94;10336957;28;20313;-67
2023/07/01 11:26:40;;;;;;;2.80;2.00;;;;;;;19.08;44.77;99058.00;10331322;28;20235;-67
2023/07/01 11:31:42;;;;;;;3.65;2.05;;;;;;;19.63;44.52;99026.13;10341846;28;20230;-66
2023/07/01 11:36:45;;;;;;;3.35;2.10;;;;;;;20.09;44.68;98992.91;10342247;28;20206;-66
2023/07/01 11:41:50;;;;;;;2.33;2.13;;;;;;;19.33;45.56;99059.25;10342947;28;20266;-66
2023/07/01 11:46:53;;;;;;;3.40;1.70;;;;;;;20.02;44.79;98981.50;10372329;28;20729;-68
2023/07/01 11:51:57;;;;;;;2.35;1.95;;;;;;;20.27;43.71;99022.31;10335412;28;20225;-68
2023/07/01 11:57:09;;;;;;;3.40;1.98;;;;;;;21.09;42.88;98977.28;10333460;28;20226;-68
2023/07/01 12:02:11;;;;;;;3.85;2.28;;;;;;;21.11;42.98;99014.00;10343881;28;20245;-71
2023/07/01 12:07:16;;;;;;;4.32;1.90;;;;;;;21.15;43.35;99025.16;10321348;28;20643;-70
2023/07/01 12:12:34;;;;;;;4.18;2.45;;;;;;;20.34;43.46;99043.81;10333839;28;20237;-71
2023/07/01 12:17:36;;;;;;;3.88;2.17;;;;;;;19.80;44.51;99025.13;10315433;28;20598;-68
2023/07/01 12:22:38;;;;;;;5.53;3.00;;;;;;;20.78;42.31;99056.16;10305894;28;20646;-68
2023/07/01 12:27:40;;;;;;;3.88;2.28;;;;;;;20.15;44.14;99067.91;10309806;28;20218;-71
2023/07/01 12:32:41;;;;;;;14.55;3.60;;;;;;;20.42;43.24;99058.78;10297628;28;20269;-68
2023/07/01 12:37:44;;;;;;;3.47;2.63;;;;;;;20.99;43.19;99008.03;10299803;28;20319;-69
2023/07/01 12:42:47;;;;;;;2.78;2.00;;;;;;;20.88;42.65;99039.03;10310277;28;20267;-68
2023/07/01 12:47:50;;;;;;;3.55;2.35;;;;;;;20.27;43.63;99071.22;10294263;28;20264;-68
2023/07/01 12:52:53;;;;;;;2.38;1.80;;;;;;;19.07;44.44;99129.56;10304370;28;20226;-70
2023/07/01 12:57:55;;;;;;;3.50;2.30;;;;;;;20.88;42.38;99039.03;10307597;28;20218;-68
2023/07/01 13:02:56;;;;;;;3.85;2.30;;;;;;;21.03;42.93;99069.75;10297360;28;20248;-71
2023/07/01 13:08:00;;;;;;;3.42;1.83;;;;;;;21.29;42.58;99039.84;10299105;28;20222;-70
2023/07/01 13:13:01;;;;;;;2.40;2.03;;;;;;;20.58;42.82;99055.00;10307410;28;20987;-70
2023/07/01 13:18:05;;;;;;;2.65;2.17;;;;;;;21.07;42.90;99012.94;10307083;28;20213;-70
2023/07/01 13:23:07;;;;;;;5.43;1.95;;;;;;;21.05;42.98;98999.59;10293677;28;20230;-70
2023/07/01 13:28:08;;;;;;;3.45;1.90;;;;;;;20.84;42.66;99033.31;10298325;28;20294;-70
2023/07/01 13:33:10;;;;;;;2.67;1.70;;;;;;;19.87;44.38;99063.69;10298139;28;20318;-68
2023/07/01 13:38:12;;;;;;;2.40;1.52;;;;;;;20.81;43.86;99025.69;10295199;28;20577;-70
2023/07/01 13:43:17;;;;;;;1.73;1.60;;;;;;;20.86;44.29;99037.38;10305916;28;20324;-70
2023/07/01 13:48:28;;;;;;;2.60;1.50;;;;;;;20.57;46.25;99004.44;10295166;28;20696;-70
2023/07/01 13:53:34;;;;;;;2.70;1.65;;;;;;;21.80;44.57;98962.69;10299052;28;20302;-71
2023/07/01 13:58:48;;;;;;;2.97;1.90;;;;;;;20.95;45.60;99029.53;10294495;28;20730;-70
2023/07/01 14:03:53;;;;;;;2.05;1.60;;;;;;;21.03;45.95;99031.66;10298872;28;21011;-70
2023/07/01 14:08:56;;;;;;;5.38;1.73;;;;;;;21.27;44.88;98987.56;10297153;28;20226;-70
2023/07/01 14:14:01;;;;;;;1.63;1.52;;;;;;;20.78;46.20;99043.34;10294097;28;20257;-70
2023/07/01 14:19:04;;;;;;;2.05;1.75;;;;;;;20.86;45.82;99044.72;10323308;28;20353;-70
2023/07/01 14:24:12;;;;;;;1.50;1.40;;;;;;;21.35;45.52;98972.59;10308376;28;20223;-70
2023/07/01 14:29:16;;;;;;;2.15;1.67;;;;;;;21.05;45.92;99018.66;10303961;28;20265;-70
2023/07/01 14:34:38;;;;;;;1.35;1.25;;;;;;;20.80;46.24;99013.19;10297586;28;20233;-70
2023/07/01 14:39:53;;;;;;;2.90;1.50;;;;;;;20.43;48.02;99023.19;10290325;28;20234;-70
2023/07/01 14:44:56;;;;;;;1.98;1.42;;;;;;;20.61;48.42;99040.88;10298538;28;20238;-70
2023/07/01 14:49:58;;;;;;;1.73;1.30;;;;;;;20.87;47.15;98992.00;10294112;28;20758;-69
2023/07/01 14:55:00;;;;;;;3.95;1.30;;;;;;;20.75;46.83;99034.91;10289329;28;20214;-70
2023/07/01 15:00:03;;;;;;;1.30;1.20;;;;;;;21.00;47.15;98982.47;10312498;28;20226;-70
2023/07/01 15:05:05;;;;;;;1.73;1.63;;;;;;;20.51;47.38;99013.69;10292058;28;20242;-70
2023/07/01 15:10:07;;;;;;;2.70;1.75;;;;;;;20.01;48.41;99007.00;10298810;28;20539;-70
2023/07/01 15:15:09;;;;;;;1.40;1.30;;;;;;;20.50;47.44;98974.00;10306171;28;20351;-69
2023/07/01 15:20:13;;;;;;;2.10;1.58;;;;;;;21.47;46.24;98942.41;10297656;28;20227;-70
2023/07/01 15:25:15;;;;;;;1.65;1.23;;;;;;;21.51;45.95;98970.69;10302602;28;20952;-70
2023/07/01 15:30:16;;;;;;;2.75;1.50;;;;;;;21.04;47.58;98994.44;10294019;28;20689;-70
2023/07/01 15:35:18;;;;;;;1.70;1.60;;;;;;;20.33;48.05;99033.19;10308125;28;20207;-70
2023/07/01 15:40:29;;;;;;;2.17;1.60;;;;;;;20.65;48.03;99003.91;10299799;28;20245;-70
2023/07/01 15:45:31;;;;;;;1.45;1.35;;;;;;;20.39;48.95;99026.69;10307838;28;20256;-69
2023/07/01 15:50:33;;;;;;;1.38;1.27;;;;;;;19.78;49.71;99076.13;10300876;28;20226;-70
2023/07/01 15:55:35;;;;;;;2.05;1.42;;;;;;;20.84;48.78;98966.16;10307766;28;20717;-70
2023/07/01 16:00:37;;;;;;;1.70;1.60;;;;;;;20.26;49.24;99045.16;10306229;28;20756;-69
2023/07/01 16:05:38;;;;;;;2.20;1.30;;;;;;;19.99;50.80;98976.59;10301481;28;20747;-70
2023/07/01 16:10:42;;;;;;;1.48;1.38;;;;;;;18.81;53.22;99066.13;10310521;28;20242;-70
2023/07/01 16:16:04;;;;;;;1.63;1.52;;;;;;;20.37;50.58;99015.28;10304974;28;20261;-69
2023/07/01 16:21:07;;;;;;;1.90;1.80;;;;;;;19.91;51.76;98995.03;10334971;28;20262;-69
2023/07/01 16:26:09;;;;;;;1.80;1.70;;;;;;;20.00;52.08;98970.88;10303925;28;20237;-70
2023/07/01 16:31:22;;;;;;;2.38;1.77;;;;;;;20.40;51.42;98958.50;10301995;28;20322;-70
2023/07/01 16:36:30;;;;;;;1.85;1.75;;;;;;;19.64;52.63;98986.25;10307240;28;20657;-67
2023/07/01 16:41:32;;;;;;;2.25;1.60;;;;;;;20.12;52.21;98974.19;10307265;28;20262;-68
2023/07/01 16:46:37;;;;;;;1.70;1.60;;;;;;;20.34;51.48;98988.66;10303604;28;20230;-68
2023/07/01 16:51:39;;;;;;;1.70;1.60;;;;;;;20.62;51.02;98950.09;10301999;28;20322;-67
2023/07/01 16:56:48;;;;;;;2.05;1.50;;;;;;;20.53;50.62;98949.03;10304796;28;20632;-68
2023/07/01 17:01:50;;;;;;;1.83;1.63;;;;;;;20.76;50.09;98993.84;10320026;28;20222;-68
2023/07/01 17:06:52;;;;;;;1.85;1.70;;;;;;;19.94;51.37;99037.94;10296985;28;20238;-68
2023/07/01 17:11:58;;;;;;;2.08;1.80;;;;;;;20.20;51.35;99002.75;10325544;28;20227;-67
2023/07/01 17:17:00;;;;;;;2.80;1.95;;;;;;;20.12;51.06;98993.19;10301773;28;20213;-68
2023/07/01 17:22:01;;;;;;;2.72;1.95;;;;;;;20.74;50.28;98968.84;10300525;28;20238;-68
2023/07/01 17:27:03;;;;;;;1.88;1.70;;;;;;;20.85;50.34;98988.72;10302306;28;20284;-68
2023/07/01 17:32:05;;;;;;;1.70;1.60;;;;;;;20.24;51.20;99031.00;10304252;28;20265;-68
2023/07/01 17:37:07;;;;;;;1.73;1.63;;;;;;;20.45;51.07;98987.59;10298536;28;20258;-67
2023/07/01 17:42:09;;;;;;;2.47;1.70;;;;;;;20.04;51.51;99033.63;10314763;28;20318;-67
2023/07/01 17:47:11;;;;;;;2.85;2.05;;;;;;;20.37;51.60;99004.44;10305401;28;20234;-67
2023/07/01 17:52:13;;;;;;;2.53;1.70;;;;;;;19.48;53.02;99037.66;10298471;28;20245;-67
2023/07/01 17:57:15;;;;;;;2.72;2.10;;;;;;;20.14;52.37;98984.78;10297069;28;20259;-68
2023/07/01 18:02:17;;;;;;;3.03;1.70;;;;;;;19.66;53.14;99016.66;10316943;28;20679;-67
2023/07/01 18:07:19;;;;;;;1.85;1.65;;;;;;;19.84;52.53;99013.47;10311475;28;20234;-68
2023/07/01 18:12:20;;;;;;;2.40;2.20;;;;;;;21.05;50.36;99025.97;10301062;28;20265;-68
2023/07/01 18:17:22;;;;;;;1.73;1.63;;;;;;;20.97;50.29;99059.13;10297044;28;21018;-67
2023/07/01 18:22:24;;;;;;;1.70;1.60;;;;;;;19.64;53.85;99079.31;10300832;28;20242;-67
2023/07/01 18:27:26;;;;;;;3.35;1.70;;;;;;;19.13;55.30;99100.59;10297538;28;20202;-68
2023/07/01 18:32:27;;;;;;;2.05;1.90;;;;;;;20.77;52.09;99044.47;10296739;28;20241;-68
2023/07/01 18:37:29;;;;;;;3.42;2.00;;;;;;;20.64;52.66;99034.91;10294191;28;20673;-67
2023/07/01 18:42:31;;;;;;;2.78;2.05;;;;;;;20.11;53.47;99062.19;10312768;28;20258;-68
2023/07/01 18:47:33;;;;;;;4.28;1.77;;;;;;;20.39;53.05;99054.69;10307336;28;20297;-68
2023/07/01 18:52:35;;;;;;;2.30;2.10;;;;;;;20.44;52.34;99068.28;10308663;28;20229;-68
2023/07/01 18:57:36;;;;;;;2.10;1.90;;;;;;;20.58;52.15;99046.03;10297208;28;20246;-68
2023/07/01 19:02:38;;;;;;;2.97;1.90;;;;;;;20.64;51.65;99078.38;10316909;28;20246;-68
2023/07/01 19:07:41;;;;;;;4.20;2.30;;;;;;;21.15;51.93;98996.03;10297963;28;20207;-67
2023/07/01 19:12:42;;;;;;;3.25;2.20;;;;;;;19.58;54.00;99110.19;10296176;28;20237;-68
2023/07/01 19:17:44;;;;;;;1.80;1.70;;;;;;;20.00;53.62;99029.81;10316272;28;20620;-67
2023/07/01 19:22:50;;;;;;;2.15;2.00;;;;;;;19.86;53.97;99043.88;10294867;28;20239;-68
2023/07/01 19:27:51;;;;;;;4.55;2.00;;;;;;;20.60;52.15;99043.88;10362098;28;20261;-67
2023/07/01 19:32:53;;;;;;;3.35;2.40;;;;;;;20.61;52.51;99051.72;10303383;28;20287;-68
2023/07/01 19:37:55;;;;;;;2.05;1.85;;;;;;;19.86;53.71;99127.22;10310601;28;20206;-68
2023/07/01 19:42:57;;;;;;;2.40;1.92;;;;;;;20.63;52.61;99052.31;10300752;28;20308;-68
2023/07/01 19:47:59;;;;;;;2.20;1.95;;;;;;;20.29;53.16;99096.25;10302466;28;20297;-67
2023/07/01 19:53:00;;;;;;;2.33;2.05;;;;;;;20.30;53.09;99089.69;10299708;28;20262;-68
2023/07/01 19:58:02;;;;;;;2.20;2.00;;;;;;;19.79;53.76;99151.03;10302442;28;20615;-68
2023/07/01 20:03:04;;;;;;;2.53;2.28;;;;;;;20.36;53.24;99104.13;10302721;28;20308;-67
2023/07/01 20:08:06;;;;;;;2.88;1.85;;;;;;;20.77;52.58;99095.31;10298885;28;20572;-67
2023/07/01 20:13:08;;;;;;;2.92;2.05;;;;;;;19.78;53.98;99161.09;10309478;28;20258;-68
2023/07/01 20:18:10;;;;;;;2.83;1.83;;;;;;;20.45;53.07;99107.16;10309296;28;20213;-67
2023/07/01 20:23:12;;;;;;;3.10;2.10;;;;;;;20.34;53.21;99119.06;10293392;28;20318;-68
2023/07/01 20:28:14;;;;;;;2.47;2.28;;;;;;;21.11;51.45;99095.59;10302146;28;20227;-68
2023/07/01 20:33:15;;;;;;;2.20;2.00;;;;;;;20.54;52.86;99150.94;10303257;28;20257;-68
2023/07/01 20:38:17;;;;;;;4.22;2.13;;;;;;;20.86;52.18;99118.97;10306604;28;20664;-68
2023/07/01 20:43:19;;;;;;;1.90;1.80;;;;;;;20.49;53.17;99122.63;10313839;28;20242;-68
2023/07/01 20:48:20;;;;;;;2.33;2.13;;;;;;;20.65;52.75;99137.09;10299650;28;20669;-68
2023/07/01 20:53:22;;;;;;;2.63;2.00;;;;;;;20.72;52.76;99165.94;10307398;28;20670;-67
2023/07/01 20:58:25;;;;;;;4.38;2.40;;;;;;;20.46;53.98;99199.28;10305382;28;20708;-68
2023/07/01 21:03:27;;;;;;;4.00;2.58;;;;;;;19.81;55.67;99227.63;10282556;28;20270;-68
2023/07/01 21:08:29;;;;;;;2.90;2.70;;;;;;;19.40;58.28;99146.69;10313050;28;20265;-67
2023/07/01 21:13:31;;;;;;;2.92;2.47;;;;;;;20.78;55.44;99132.25;10400904;22;20764;-37
2023/07/01 21:18:32;;;;;;;3.45;2.55;;;;;;;20.87;54.83;99160.56;10388837;28;20201;-38
2023/07/01 21:23:34;;;;;;;3.92;3.47;;;;;;;21.35;53.42;99146.75;10394787;28;20633;-36
2023/07/01 21:28:36;;;;;;;3.67;2.85;;;;;;;20.91;54.09;99198.91;10390171;28;20244;-36
2023/07/01 21:33:38;;;;;;;3.58;2.60;;;;;;;21.70;52.84;99153.31;10387354;28;20229;-36
2023/07/01 21:38:41;;;;;;;3.08;2.72;;;;;;;20.58;55.42;99143.88;10396900;28;20213;-38
2023/07/01 21:43:43;;;;;;;2.92;2.63;;;;;;;20.63;54.14;99184.66;10388199;28;20318;-39
2023/07/01 21:48:45;;;;;;;3.20;2.90;;;;;;;21.14;53.01;99159.50;10392642;28;20221;-36
2023/07/01 21:53:47;;;;;;;3.80;2.60;;;;;;;21.40;52.53;99160.38;10390266;28;20267;-36
2023/07/01 21:58:52;;;;;;;2.90;2.70;;;;;;;21.38;52.59;99185.16;10392962;28;20780;-36
2023/07/01 22:03:55;;;;;;;3.83;2.72;;;;;;;21.06;52.73;99228.88;10381530;28;20256;-35
2023/07/01 22:08:57;;;;;;;3.03;2.63;;;;;;;20.49;53.21;99274.00;10396742;28;20208;-36
2023/07/01 22:14:00;;;;;;;3.10;2.80;;;;;;;20.61;53.02;99255.56;10393152;28;20272;-36
2023/07/01 22:19:02;;;;;;;3.03;2.72;;;;;;;20.36;53.50;99236.44;10395435;28;20213;-38
2023/07/01 22:24:05;;;;;;;2.92;2.70;;;;;;;19.43;55.22;99294.53;10388275;28;20233;-37
2023/07/01 22:29:07;;;;;;;3.40;2.70;;;;;;;19.98;54.64;99250.00;10376765;28;20222;-37
2023/07/01 22:34:09;;;;;;;3.15;2.85;;;;;;;19.94;54.75;99251.63;10391823;28;20707;-37
2023/07/01 22:39:11;;;;;;;3.15;2.83;;;;;;;19.95;54.67;99248.63;10387941;28;20697;-39
2023/07/01 22:44:12;;;;;;;3.22;2.88;;;;;;;20.73;52.19;99268.16;10395372;28;20248;-38
2023/07/01 22:49:14;;;;;;;3.00;2.70;;;;;;;20.92;52.39;99253.03;10392761;28;20212;-36
2023/07/01 22:54:16;;;;;;;3.10;2.80;;;;;;;19.72;54.20;99312.25;10381582;28;20350;-37
2023/07/01 22:59:18;;;;;;;3.08;2.70;;;;;;;21.45;51.25;99235.78;10392315;28;20630;-39
2023/07/01 23:04:20;;;;;;;3.92;2.80;;;;;;;20.71;52.55;99292.06;10386767;28;20243;-37
2023/07/01 23:09:22;;;;;;;2.90;2.70;;;;;;;20.95;51.99;99287.03;10392143;28;20240;-39
2023/07/01 23:14:27;;;;;;;3.35;3.05;;;;;;;20.60;52.40;99286.56;10387342;28;20228;-37
2023/07/01 23:19:29;;;;;;;5.53;3.85;;;;;;;21.12;51.25;99256.91;10381852;28;20266;-36
2023/07/01 23:24:30;;;;;;;4.63;3.45;;;;;;;21.19;50.92;99262.91;10388216;28;20236;-40
2023/07/01 23:29:32;;;;;;;3.97;2.67;;;;;;;20.36;52.44;99309.78;10387352;28;20209;-38
2023/07/01 23:34:34;;;;;;;3.15;2.78;;;;;;;20.30;52.07;99320.63;10391582;28;20221;-38